createdAt,value
2019-05-29T00:00:10.142Z,98.90
2019-05-29T00:02:38.972Z,99.20
2019-05-29T00:05:08.047Z,99.30
2019-05-29T00:07:36.682Z,99.40
2019-05-29T00:10:06.456Z,99.50
2019-05-29T00:12:35.042Z,99.70
2019-05-29T00:15:03.782Z,99.90
2019-05-29T00:17:32.326Z,99.90
2019-05-29T00:20:00.952Z,99.90
2019-05-29T00:22:29.592Z,99.90
2019-05-29T00:24:58.218Z,99.90
2019-05-29T00:27:26.856Z,99.90
2019-05-29T00:29:55.570Z,99.90
2019-05-29T00:32:24.154Z,99.90
2019-05-29T00:34:52.802Z,99.90
2019-05-29T00:37:21.420Z,99.90
2019-05-29T00:39:50.171Z,99.90
2019-05-29T00:42:18.792Z,99.90
2019-05-29T00:44:47.496Z,99.90
2019-05-29T00:47:16.146Z,99.90
2019-05-29T00:49:44.755Z,99.90
2019-05-29T00:52:14.291Z,99.90
2019-05-29T00:54:43.190Z,99.90
2019-05-29T00:57:12.863Z,99.90
2019-05-29T00:59:41.538Z,99.90
2019-05-29T01:02:11.794Z,99.90
2019-05-29T01:04:40.410Z,99.90
2019-05-29T01:07:10.170Z,99.90
2019-05-29T01:09:38.892Z,99.90
2019-05-29T01:12:07.585Z,99.90
2019-05-29T01:14:49.148Z,99.90
2019-05-29T01:17:06.627Z,99.90
2019-05-29T01:19:35.259Z,99.90
2019-05-29T01:22:03.867Z,99.90
2019-05-29T01:24:33.215Z,99.90
2019-05-29T01:27:01.728Z,99.90
2019-05-29T01:29:30.347Z,99.90
2019-05-29T01:31:58.913Z,99.90
2019-05-29T01:34:27.491Z,99.90
2019-05-29T01:36:56.226Z,99.90
2019-05-29T01:39:24.815Z,99.90
2019-05-29T01:41:53.342Z,99.90
2019-05-29T01:44:21.861Z,99.90
2019-05-29T01:46:51.203Z,99.90
2019-05-29T01:49:19.726Z,99.90
2019-05-29T01:51:48.327Z,99.90
2019-05-29T01:54:17.549Z,99.90
2019-05-29T01:56:46.214Z,99.90
2019-05-29T01:59:15.690Z,99.90
2019-05-29T02:01:44.255Z,99.90
2019-05-29T02:04:12.953Z,99.90
2019-05-29T02:06:41.546Z,99.90
2019-05-29T02:09:10.166Z,99.90
2019-05-29T02:11:38.901Z,99.90
2019-05-29T02:14:07.449Z,99.90
2019-05-29T02:16:36.015Z,99.90
2019-05-29T02:19:04.879Z,99.90
2019-05-29T02:21:33.461Z,99.90
2019-05-29T02:24:02.191Z,99.90
2019-05-29T02:26:31.127Z,99.90
2019-05-29T02:28:59.845Z,99.90
2019-05-29T02:31:28.962Z,99.90
2019-05-29T02:33:57.642Z,99.90
2019-05-29T02:36:27.198Z,99.90
2019-05-29T02:38:56.539Z,99.90
2019-05-29T02:41:26.224Z,99.90
2019-05-29T02:43:55.470Z,99.90
2019-05-29T02:46:25.933Z,99.90
2019-05-29T02:48:54.330Z,99.90
2019-05-29T02:51:24.234Z,99.90
2019-05-29T02:53:53.021Z,99.90
2019-05-29T02:56:22.985Z,99.90
2019-05-29T02:58:52.094Z,99.90
2019-05-29T03:01:21.575Z,99.90
2019-05-29T03:03:50.665Z,99.90
2019-05-29T03:06:19.423Z,99.90
2019-05-29T03:08:48.133Z,99.90
2019-05-29T03:11:16.769Z,99.90
2019-05-29T03:13:45.704Z,99.80
2019-05-29T03:16:14.313Z,99.80
2019-05-29T03:18:43.014Z,99.90
2019-05-29T03:21:11.662Z,99.60
2019-05-29T03:23:40.414Z,99.30
2019-05-29T03:26:09.061Z,99.10
2019-05-29T03:28:38.189Z,98.80
2019-05-29T03:31:07.235Z,98.10
2019-05-29T03:33:45.334Z,97.60
2019-05-29T03:36:06.307Z,97.80
2019-05-29T03:38:35.173Z,97.30
2019-05-29T03:41:04.040Z,96.40
2019-05-29T03:43:35.057Z,96.50
2019-05-29T03:46:02.933Z,95.90
2019-05-29T03:48:32.472Z,95.90
2019-05-29T03:51:01.770Z,95.20
2019-05-29T03:53:31.606Z,95.10
2019-05-29T03:56:00.601Z,95.20
2019-05-29T03:58:30.843Z,95.00
2019-05-29T04:01:00.108Z,95.40
2019-05-29T04:03:29.016Z,95.00
2019-05-29T04:05:57.648Z,94.60
2019-05-29T04:08:27.395Z,94.20
2019-05-29T04:10:56.817Z,94.30
2019-05-29T04:13:27.266Z,93.90
2019-05-29T04:15:57.210Z,93.80
2019-05-29T04:18:27.597Z,93.80
2019-05-29T04:20:57.017Z,93.30
2019-05-29T04:23:29.981Z,93.10
2019-05-29T04:26:00.187Z,93.10
2019-05-29T04:28:30.392Z,92.70
2019-05-29T04:30:59.488Z,92.50
2019-05-29T04:33:28.215Z,92.40
2019-05-29T04:35:56.988Z,92.10
2019-05-29T04:38:25.658Z,91.90
2019-05-29T04:40:54.349Z,91.60
2019-05-29T04:43:22.975Z,91.50
2019-05-29T04:45:51.627Z,91.30
2019-05-29T04:48:20.254Z,90.70
2019-05-29T04:50:49.369Z,91.00
2019-05-29T04:53:17.991Z,90.30
2019-05-29T04:55:46.565Z,90.10
2019-05-29T04:58:15.135Z,89.60
2019-05-29T05:00:58.192Z,89.00
2019-05-29T05:03:13.989Z,89.70
2019-05-29T05:05:42.551Z,88.90
2019-05-29T05:08:11.244Z,87.90
2019-05-29T05:10:41.381Z,87.10
2019-05-29T05:13:10.534Z,86.50
2019-05-29T05:15:40.365Z,87.20
2019-05-29T05:18:09.048Z,86.30
2019-05-29T05:20:38.386Z,86.40
2019-05-29T05:23:07.095Z,84.90
2019-05-29T05:25:36.406Z,84.50
2019-05-29T05:28:05.432Z,84.30
2019-05-29T05:30:34.415Z,83.70
2019-05-29T05:33:03.127Z,83.90
2019-05-29T05:35:32.581Z,83.40
2019-05-29T05:38:01.290Z,81.10
2019-05-29T05:40:30.762Z,81.60
2019-05-29T05:42:59.478Z,82.70
2019-05-29T05:45:28.234Z,81.70
2019-05-29T05:47:57.933Z,82.60
2019-05-29T05:50:27.226Z,80.90
2019-05-29T05:52:55.882Z,79.70
2019-05-29T05:55:24.423Z,80.10
2019-05-29T05:57:53.205Z,79.50
2019-05-29T06:00:27.653Z,80.30
2019-05-29T06:02:57.218Z,78.90
2019-05-29T06:05:25.917Z,78.90
2019-05-29T06:07:54.614Z,78.60
2019-05-29T06:10:23.338Z,75.80
2019-05-29T06:12:52.043Z,76.80
2019-05-29T06:15:20.758Z,78.20
2019-05-29T06:18:05.017Z,76.50
2019-05-29T06:20:19.603Z,76.00
2019-05-29T06:22:48.228Z,77.20
2019-05-29T06:25:17.600Z,74.60
2019-05-29T06:27:46.273Z,75.20
2019-05-29T06:30:15.162Z,77.10
2019-05-29T06:32:43.812Z,75.20
2019-05-29T06:35:12.803Z,75.10
2019-05-29T06:37:41.771Z,75.20
2019-05-29T06:40:10.763Z,74.00
2019-05-29T06:42:39.840Z,74.80
2019-05-29T06:45:09.423Z,74.40
2019-05-29T06:47:38.753Z,74.20
2019-05-29T06:50:07.792Z,72.70
2019-05-29T06:52:37.403Z,72.00
2019-05-29T06:55:06.218Z,72.80
2019-05-29T06:57:35.958Z,72.20
2019-05-29T07:00:09.332Z,72.60
2019-05-29T07:02:38.500Z,72.10
2019-05-29T07:05:07.233Z,73.50
2019-05-29T07:07:36.107Z,71.90
2019-05-29T07:10:07.873Z,72.40
2019-05-29T07:12:36.450Z,73.30
2019-05-29T07:15:09.491Z,72.70
2019-05-29T07:17:38.645Z,72.00
2019-05-29T07:20:07.497Z,73.10
2019-05-29T07:22:37.026Z,71.90
2019-05-29T07:25:06.931Z,74.10
2019-05-29T07:27:36.717Z,71.80
2019-05-29T07:30:06.864Z,70.30
2019-05-29T07:32:35.553Z,72.80
2019-05-29T07:35:05.803Z,70.00
2019-05-29T07:37:34.431Z,71.80
2019-05-29T07:40:03.961Z,70.30
2019-05-29T07:42:33.041Z,70.10
2019-05-29T07:45:01.628Z,67.40
2019-05-29T07:47:30.305Z,70.10
2019-05-29T07:49:58.933Z,70.40
2019-05-29T07:52:27.627Z,67.90
2019-05-29T07:54:56.265Z,68.60
2019-05-29T07:57:24.842Z,67.20
2019-05-29T07:59:53.541Z,68.70
2019-05-29T08:02:22.251Z,67.30
2019-05-29T08:04:50.854Z,65.70
2019-05-29T08:07:19.551Z,64.50
2019-05-29T08:09:48.120Z,65.10
2019-05-29T08:12:16.777Z,65.40
2019-05-29T08:14:45.859Z,61.50
2019-05-29T08:17:14.623Z,60.50
2019-05-29T08:19:59.293Z,61.80
2019-05-29T08:22:13.800Z,61.40
2019-05-29T08:24:42.654Z,60.80
2019-05-29T08:27:12.253Z,59.60
2019-05-29T08:29:40.974Z,59.20
2019-05-29T08:32:09.847Z,59.20
2019-05-29T08:34:38.463Z,58.30
2019-05-29T08:37:07.725Z,60.80
2019-05-29T08:39:37.114Z,60.50
2019-05-29T08:44:31.959Z,58.80
2019-05-29T08:47:09.534Z,58.90
2019-05-29T08:49:30.722Z,59.80
2019-05-29T08:52:11.320Z,60.50
2019-05-29T08:54:29.661Z,57.50
2019-05-29T08:56:58.438Z,57.00
2019-05-29T08:59:27.053Z,55.30
2019-05-29T09:01:55.777Z,56.50
2019-05-29T09:04:24.407Z,54.90
2019-05-29T09:06:53.484Z,55.80
2019-05-29T09:09:22.347Z,56.40
2019-05-29T09:11:51.872Z,56.60
2019-05-29T09:14:20.531Z,56.50
2019-05-29T09:16:49.207Z,56.50
2019-05-29T09:19:18.851Z,57.60
2019-05-29T09:21:48.093Z,54.30
2019-05-29T09:24:17.527Z,54.70
2019-05-29T09:26:46.768Z,55.90
2019-05-29T09:29:18.709Z,55.10
2019-05-29T09:31:46.524Z,55.90
2019-05-29T09:34:15.486Z,56.20
2019-05-29T09:36:45.347Z,52.50
2019-05-29T09:39:16.192Z,54.90
2019-05-29T09:41:44.194Z,54.30
2019-05-29T09:44:28.132Z,52.40
2019-05-29T09:46:43.114Z,50.30
2019-05-29T09:49:11.676Z,51.80
2019-05-29T09:51:40.378Z,52.20
2019-05-29T09:54:08.967Z,49.10
2019-05-29T09:56:37.631Z,48.30
2019-05-29T09:59:06.223Z,49.40
2019-05-29T10:01:34.855Z,48.70
2019-05-29T10:04:06.092Z,49.00
2019-05-29T10:06:33.895Z,49.00
2019-05-29T10:09:03.777Z,46.30
2019-05-29T10:11:32.408Z,46.90
2019-05-29T10:14:02.630Z,46.70
2019-05-29T10:16:31.316Z,46.30
2019-05-29T10:19:01.241Z,47.60
2019-05-29T10:21:40.090Z,44.30
2019-05-29T10:24:01.943Z,48.40
2019-05-29T10:26:30.826Z,47.10
2019-05-29T10:29:07.641Z,48.50
2019-05-29T10:31:29.782Z,47.20
2019-05-29T10:33:58.425Z,47.30
2019-05-29T10:36:27.148Z,44.40
2019-05-29T10:38:55.774Z,44.60
2019-05-29T10:41:25.176Z,46.30
2019-05-29T10:43:53.750Z,45.70
2019-05-29T10:46:22.463Z,44.20
2019-05-29T10:48:53.908Z,43.10
2019-05-29T10:51:21.404Z,41.30
2019-05-29T10:53:52.321Z,44.40
2019-05-29T10:56:21.513Z,43.80
2019-05-29T10:58:56.438Z,44.30
2019-05-29T11:01:26.773Z,43.60
2019-05-29T11:03:55.873Z,43.30
2019-05-29T11:06:24.643Z,44.00
2019-05-29T11:08:54.132Z,41.40
2019-05-29T11:11:23.008Z,41.30
2019-05-29T11:13:52.707Z,40.60
2019-05-29T11:16:21.544Z,39.30
2019-05-29T11:18:51.119Z,40.20
2019-05-29T11:21:20.007Z,35.60
2019-05-29T11:23:49.746Z,38.90
2019-05-29T11:26:18.774Z,36.30
2019-05-29T11:28:48.334Z,34.70
2019-05-29T11:31:17.170Z,34.70
2019-05-29T11:33:45.845Z,36.80
2019-05-29T11:36:15.403Z,35.60
2019-05-29T11:38:45.635Z,36.00
2019-05-29T11:41:25.761Z,36.20
2019-05-29T11:43:44.743Z,35.50
2019-05-29T11:46:13.842Z,36.70
2019-05-29T11:48:42.470Z,36.50
2019-05-29T11:51:11.173Z,37.60
2019-05-29T11:53:39.789Z,38.30
2019-05-29T11:56:08.389Z,37.10
2019-05-29T11:58:37.283Z,37.30
2019-05-29T12:01:05.997Z,35.00
2019-05-29T12:03:34.723Z,32.80
2019-05-29T12:06:03.442Z,34.30
2019-05-29T12:08:32.006Z,35.50
2019-05-29T12:11:01.576Z,34.60
2019-05-29T12:13:30.272Z,33.30
2019-05-29T12:15:59.692Z,33.00
2019-05-29T12:18:28.426Z,34.40
2019-05-29T12:20:58.510Z,34.90
2019-05-29T12:23:27.463Z,33.80
2019-05-29T12:26:16.646Z,29.20
2019-05-29T12:28:26.497Z,30.30
2019-05-29T12:30:55.298Z,32.40
2019-05-29T12:33:23.947Z,30.60
2019-05-29T12:35:52.899Z,31.40
2019-05-29T12:38:21.584Z,29.60
2019-05-29T12:40:50.214Z,31.80
2019-05-29T12:43:27.105Z,32.50
2019-05-29T12:45:49.916Z,30.90
2019-05-29T12:48:18.617Z,30.90
2019-05-29T12:50:47.303Z,30.70
2019-05-29T12:53:29.737Z,30.40
2019-05-29T12:55:47.276Z,29.30
2019-05-29T12:58:15.922Z,29.70
2019-05-29T13:00:44.478Z,29.60
2019-05-29T13:03:13.058Z,32.60
2019-05-29T13:05:42.104Z,31.90
2019-05-29T13:08:10.726Z,33.60
2019-05-29T13:10:39.480Z,32.50
2019-05-29T13:13:11.036Z,35.10
2019-05-29T13:15:38.474Z,36.30
2019-05-29T13:18:09.922Z,34.50
2019-05-29T13:20:37.584Z,33.30
2019-05-29T13:23:07.359Z,29.30
2019-05-29T13:25:36.293Z,29.30
2019-05-29T13:28:06.127Z,29.70
2019-05-29T13:30:34.955Z,31.20
2019-05-29T13:33:06.763Z,31.80
2019-05-29T13:35:33.760Z,33.30
2019-05-29T13:38:03.305Z,33.20
2019-05-29T13:40:32.169Z,33.30
2019-05-29T13:43:06.967Z,31.40
2019-05-29T13:45:31.054Z,31.90
2019-05-29T13:48:01.218Z,30.80
2019-05-29T13:50:30.091Z,31.80
2019-05-29T13:52:59.353Z,31.90
2019-05-29T13:55:28.268Z,32.60
2019-05-29T13:57:57.610Z,35.20
2019-05-29T14:00:33.251Z,34.30
2019-05-29T14:02:58.233Z,34.20
2019-05-29T14:05:27.081Z,33.80
2019-05-29T14:07:55.674Z,30.20
2019-05-29T14:10:24.442Z,29.40
2019-05-29T14:12:53.028Z,32.20
2019-05-29T14:15:21.830Z,30.70
2019-05-29T14:17:51.141Z,31.90
2019-05-29T14:20:19.893Z,33.40
2019-05-29T14:22:48.472Z,35.30
2019-05-29T14:25:17.534Z,34.00
2019-05-29T14:27:46.111Z,34.30
2019-05-29T14:30:15.697Z,35.60
2019-05-29T14:32:44.274Z,33.80
2019-05-29T14:35:13.598Z,34.30
2019-05-29T14:37:42.247Z,34.90
2019-05-29T14:40:12.303Z,33.40
2019-05-29T14:42:41.339Z,33.60
2019-05-29T14:45:10.680Z,33.00
2019-05-29T14:47:39.678Z,32.40
2019-05-29T14:50:09.124Z,34.90
2019-05-29T14:52:38.233Z,34.70
2019-05-29T14:55:08.783Z,32.00
2019-05-29T14:57:37.779Z,33.50
2019-05-29T15:00:20.686Z,33.80
2019-05-29T15:02:41.603Z,33.00
2019-05-29T15:05:11.984Z,33.70
2019-05-29T15:07:41.025Z,34.60
2019-05-29T15:10:22.731Z,34.00
2019-05-29T15:12:42.028Z,34.00
2019-05-29T15:15:13.142Z,32.50
2019-05-29T15:17:41.149Z,32.30
2019-05-29T15:20:12.326Z,31.40
2019-05-29T15:22:40.663Z,33.60
2019-05-29T15:25:18.309Z,33.30
2019-05-29T15:27:40.246Z,31.90
2019-05-29T15:30:11.173Z,32.80
2019-05-29T15:32:40.247Z,31.30
2019-05-29T15:35:12.720Z,30.10
2019-05-29T15:37:39.689Z,31.00
2019-05-29T15:40:10.916Z,31.60
2019-05-29T15:42:39.799Z,30.60
2019-05-29T15:45:10.060Z,31.10
2019-05-29T15:47:38.775Z,30.50
2019-05-29T15:50:12.131Z,33.00
2019-05-29T15:52:42.033Z,31.10
2019-05-29T15:55:24.516Z,31.30
2019-05-29T15:57:41.158Z,32.00
2019-05-29T16:00:13.403Z,32.80
2019-05-29T16:02:42.451Z,32.20
2019-05-29T16:05:13.109Z,31.00
2019-05-29T16:07:41.924Z,32.80
2019-05-29T16:10:14.793Z,31.90
2019-05-29T16:12:42.884Z,33.70
2019-05-29T16:15:13.104Z,34.30
2019-05-29T16:17:41.894Z,33.30
2019-05-29T16:20:12.163Z,31.80
2019-05-29T16:22:41.089Z,32.30
2019-05-29T16:25:10.793Z,32.60
2019-05-29T16:27:39.526Z,35.50
2019-05-29T16:30:08.937Z,36.40
2019-05-29T16:32:37.722Z,38.50
2019-05-29T16:35:07.505Z,36.90
2019-05-29T16:37:36.190Z,36.10
2019-05-29T16:40:14.150Z,36.20
2019-05-29T16:42:43.110Z,39.20
2019-05-29T16:45:12.637Z,41.80
2019-05-29T16:47:41.298Z,41.20
2019-05-29T16:50:12.887Z,39.20
2019-05-29T16:52:41.676Z,40.10
2019-05-29T16:55:11.168Z,38.60
2019-05-29T16:57:39.806Z,39.00
2019-05-29T17:00:09.834Z,38.00
2019-05-29T17:02:39.090Z,37.60
2019-05-29T17:05:10.571Z,39.30
2019-05-29T17:07:39.217Z,41.30
2019-05-29T17:10:08.643Z,40.60
2019-05-29T17:12:38.305Z,40.30
2019-05-29T17:15:11.265Z,40.70
2019-05-29T17:17:39.969Z,41.20
2019-05-29T17:20:10.815Z,42.40
2019-05-29T17:22:39.473Z,42.30
2019-05-29T17:25:09.390Z,43.00
2019-05-29T17:27:37.951Z,43.50
2019-05-29T17:30:08.928Z,42.80
2019-05-29T17:32:37.684Z,41.90
2019-05-29T17:35:08.046Z,42.80
2019-05-29T17:37:37.340Z,43.60
2019-05-29T17:40:07.437Z,43.80
2019-05-29T17:42:36.115Z,44.20
2019-05-29T17:45:07.544Z,44.40
2019-05-29T17:47:36.475Z,45.10
2019-05-29T17:50:08.116Z,44.70
2019-05-29T17:52:36.794Z,43.90
2019-05-29T17:55:10.510Z,43.90
2019-05-29T17:57:39.283Z,43.90
2019-05-29T18:00:11.231Z,43.50
2019-05-29T18:02:51.339Z,45.70
2019-05-29T18:05:10.401Z,47.40
2019-05-29T18:07:39.125Z,48.90
2019-05-29T18:10:08.448Z,50.40
2019-05-29T18:12:37.257Z,49.80
2019-05-29T18:15:07.318Z,49.30
2019-05-29T18:17:35.991Z,49.60
2019-05-29T18:20:14.052Z,50.00
2019-05-29T18:22:40.538Z,51.30
2019-05-29T18:25:09.526Z,51.90
2019-05-29T18:27:38.301Z,52.30
2019-05-29T18:30:10.001Z,52.00
2019-05-29T18:32:38.720Z,52.90
2019-05-29T18:35:09.213Z,52.90
2019-05-29T18:37:37.826Z,53.50
2019-05-29T18:40:12.267Z,54.10
2019-05-29T18:42:38.358Z,54.80
2019-05-29T18:45:20.464Z,55.40
2019-05-29T18:47:39.739Z,56.10
2019-05-29T18:50:10.159Z,55.80
2019-05-29T18:52:39.115Z,55.60
2019-05-29T18:55:08.590Z,56.00
2019-05-29T18:57:37.287Z,56.30
2019-05-29T19:00:11.163Z,55.40
2019-05-29T19:02:39.868Z,56.00
2019-05-29T19:05:08.979Z,55.60
2019-05-29T19:07:37.537Z,55.20
2019-05-29T19:10:07.170Z,54.80
2019-05-29T19:12:36.140Z,55.40
2019-05-29T19:15:07.310Z,55.60
2019-05-29T19:17:36.237Z,57.20
2019-05-29T19:20:05.717Z,57.50
2019-05-29T19:22:34.483Z,58.30
2019-05-29T19:25:04.676Z,58.10
2019-05-29T19:27:41.335Z,58.30
2019-05-29T19:30:05.435Z,59.20
2019-05-29T19:32:34.126Z,59.60
2019-05-29T19:35:03.290Z,60.30
2019-05-29T19:37:32.134Z,61.00
2019-05-29T19:40:00.757Z,61.90
2019-05-29T19:42:30.249Z,63.20
2019-05-29T19:44:58.919Z,63.40
2019-05-29T19:47:28.580Z,63.80
2019-05-29T19:49:57.284Z,64.60
2019-05-29T19:52:27.005Z,65.80
2019-05-29T19:54:55.713Z,66.80
2019-05-29T19:57:25.800Z,67.70
2019-05-29T19:59:54.594Z,67.70
2019-05-29T20:02:23.326Z,67.90
2019-05-29T20:04:51.970Z,68.60
2019-05-29T20:07:21.360Z,69.70
2019-05-29T20:09:49.925Z,70.60
2019-05-29T20:12:18.640Z,71.50
2019-05-29T20:14:47.329Z,71.70
2019-05-29T20:17:15.892Z,73.00
2019-05-29T20:19:44.526Z,74.90
2019-05-29T20:22:13.205Z,76.00
2019-05-29T20:24:41.779Z,77.00
2019-05-29T20:27:10.456Z,77.70
2019-05-29T20:29:39.219Z,78.70
2019-05-29T20:32:07.917Z,79.70
2019-05-29T20:34:36.882Z,81.40
2019-05-29T20:37:05.615Z,82.20
2019-05-29T20:39:34.566Z,82.90
2019-05-29T20:42:03.170Z,84.80
2019-05-29T20:44:32.588Z,85.30
2019-05-29T20:47:02.202Z,85.20
2019-05-29T20:49:31.890Z,85.10
2019-05-29T20:52:00.770Z,85.10
2019-05-29T20:54:29.449Z,86.10
2019-05-29T20:56:59.731Z,86.90
2019-05-29T20:59:28.513Z,88.10
2019-05-29T21:01:57.147Z,88.10
2019-05-29T21:04:25.799Z,89.10
2019-05-29T21:06:54.450Z,89.40
2019-05-29T21:09:23.127Z,89.80
2019-05-29T21:11:51.860Z,89.80
2019-05-29T21:14:20.505Z,90.00
2019-05-29T21:16:49.220Z,90.00
2019-05-29T21:19:17.941Z,90.00
2019-05-29T21:21:46.577Z,89.80
2019-05-29T21:24:15.346Z,90.30
2019-05-29T21:26:45.208Z,91.00
2019-05-29T21:29:13.910Z,91.20
2019-05-29T21:31:43.738Z,90.90
2019-05-29T21:34:12.634Z,90.80
2019-05-29T21:36:42.164Z,91.00
2019-05-29T21:39:10.964Z,91.20
2019-05-29T21:41:40.435Z,91.40
2019-05-29T21:44:09.190Z,91.60
2019-05-29T21:46:38.845Z,91.60
2019-05-29T21:49:07.609Z,91.20
2019-05-29T21:51:37.297Z,91.00
2019-05-29T21:54:07.399Z,91.10
2019-05-29T21:56:37.434Z,91.30
2019-05-29T21:59:06.463Z,91.40
2019-05-29T22:01:35.321Z,91.30
2019-05-29T22:04:04.121Z,91.20
2019-05-29T22:06:35.891Z,91.20
2019-05-29T22:09:09.346Z,91.80
2019-05-29T22:11:37.958Z,91.60
2019-05-29T22:14:06.965Z,91.70
2019-05-29T22:16:35.657Z,91.90
2019-05-29T22:19:04.704Z,92.10
2019-05-29T22:21:33.350Z,92.60
2019-05-29T22:24:03.694Z,92.80
2019-05-29T22:26:34.250Z,92.80
2019-05-29T22:29:17.072Z,92.80
2019-05-29T22:31:33.298Z,93.00
2019-05-29T22:34:02.046Z,93.50
2019-05-29T22:36:30.807Z,93.70
2019-05-29T22:38:59.650Z,94.00
2019-05-29T22:41:28.431Z,94.30
2019-05-29T22:43:57.589Z,94.80
2019-05-29T22:46:26.209Z,94.50
2019-05-29T22:48:55.880Z,94.70
2019-05-29T22:51:24.623Z,94.90
2019-05-29T22:53:53.955Z,95.20
2019-05-29T22:56:22.949Z,95.00
2019-05-29T22:58:52.123Z,95.30
2019-05-29T23:01:20.989Z,95.60
2019-05-29T23:03:49.608Z,95.70
2019-05-29T23:06:18.247Z,95.70
2019-05-29T23:08:46.969Z,95.90
2019-05-29T23:11:15.722Z,96.00
2019-05-29T23:13:48.132Z,96.00
2019-05-29T23:16:15.966Z,96.10
2019-05-29T23:18:44.502Z,96.20
2019-05-29T23:21:13.206Z,96.40
2019-05-29T23:23:42.299Z,96.70
2019-05-29T23:26:11.070Z,96.60
2019-05-29T23:28:39.708Z,96.50
2019-05-29T23:31:08.348Z,96.70
2019-05-29T23:33:37.005Z,97.00
2019-05-29T23:36:05.712Z,97.10
2019-05-29T23:38:34.347Z,97.20
2019-05-29T23:41:03.753Z,97.40
2019-05-29T23:43:32.477Z,97.50
2019-05-29T23:46:02.435Z,97.30
2019-05-29T23:48:31.322Z,97.30
2019-05-29T23:50:59.886Z,97.40
2019-05-29T23:53:28.445Z,97.70
2019-05-29T23:55:57.656Z,98.00
2019-05-29T23:58:26.296Z,98.20
